sensor_id;sensor_type;location;lat;lon;timestamp;pressure;altitude;pressure_sealevel;temperature;humidity
2761;BME280;15420;48.636;9.798;2023-03-01T00:01:10;97312.81;;;1.61;78.04
2761;BME280;15420;48.636;9.798;2023-03-01T00:03:37;97316.25;;;1.62;77.28
2761;BME280;15420;48.636;9.798;2023-03-01T00:06:05;97322.88;;;1.60;78.00
2761;BME280;15420;48.636;9.798;2023-03-01T00:08:32;97324.44;;;1.58;78.43
2761;BME280;15420;48.636;9.798;2023-03-01T00:13:31;97337.03;;;1.56;78.39
2761;BME280;15420;48.636;9.798;2023-03-01T00:15:57;97327.66;;;1.55;79.14
2761;BME280;15420;48.636;9.798;2023-03-01T00:18:25;97327.56;;;1.54;78.81
2761;BME280;15420;48.636;9.798;2023-03-01T00:20:55;97327.38;;;1.51;78.51
2761;BME280;15420;48.636;9.798;2023-03-01T00:23:24;97313.59;;;1.47;78.91
2761;BME280;15420;48.636;9.798;2023-03-01T00:25:52;97317.69;;;1.45;78.81
2761;BME280;15420;48.636;9.798;2023-03-01T00:28:19;97313.31;;;1.43;79.81
2761;BME280;15420;48.636;9.798;2023-03-01T00:30:46;97314.88;;;1.41;79.50
2761;BME280;15420;48.636;9.798;2023-03-01T00:33:13;97318.97;;;1.39;80.17
2761;BME280;15420;48.636;9.798;2023-03-01T00:35:41;97312.13;;;1.38;79.78
2761;BME280;15420;48.636;9.798;2023-03-01T00:38:08;97310.28;;;1.35;79.56
2761;BME280;15420;48.636;9.798;2023-03-01T00:40:36;97303.34;;;1.33;80.25
2761;BME280;15420;48.636;9.798;2023-03-01T00:43:03;97311.72;;;1.31;80.06
2761;BME280;15420;48.636;9.798;2023-03-01T00:45:29;97314.06;;;1.28;80.78
2761;BME280;15420;48.636;9.798;2023-03-01T00:48:01;97309.88;;;1.29;80.53
2761;BME280;15420;48.636;9.798;2023-03-01T00:50:28;97303.81;;;1.27;80.85
2761;BME280;15420;48.636;9.798;2023-03-01T00:52:56;97314.84;;;1.27;80.43
2761;BME280;15420;48.636;9.798;2023-03-01T00:55:23;97304.69;;;1.27;81.28
2761;BME280;15420;48.636;9.798;2023-03-01T00:57:49;97305.47;;;1.26;81.54
2761;BME280;15420;48.636;9.798;2023-03-01T01:00:19;97307.25;;;1.27;81.05
2761;BME280;15420;48.636;9.798;2023-03-01T01:02:47;97300.50;;;1.28;81.32
2761;BME280;15420;48.636;9.798;2023-03-01T01:05:14;97302.25;;;1.29;82.25
2761;BME280;15420;48.636;9.798;2023-03-01T01:07:40;97294.75;;;1.30;82.43
2761;BME280;15420;48.636;9.798;2023-03-01T01:10:06;97291.44;;;1.31;82.48
2761;BME280;15420;48.636;9.798;2023-03-01T01:12:33;97282.94;;;1.31;81.78
2761;BME280;15420;48.636;9.798;2023-03-01T01:15:01;97291.34;;;1.30;82.95
2761;BME280;15420;48.636;9.798;2023-03-01T01:17:27;97286.34;;;1.31;82.31
2761;BME280;15420;48.636;9.798;2023-03-01T01:19:56;97285.56;;;1.33;83.19
2761;BME280;15420;48.636;9.798;2023-03-01T01:22:22;97283.03;;;1.33;82.91
2761;BME280;15420;48.636;9.798;2023-03-01T01:24:51;97283.13;;;1.34;82.55
2761;BME280;15420;48.636;9.798;2023-03-01T01:27:19;97288.22;;;1.34;82.89
2761;BME280;15420;48.636;9.798;2023-03-01T01:29:47;97277.28;;;1.35;83.26
2761;BME280;15420;48.636;9.798;2023-03-01T01:32:13;97285.00;;;1.37;82.65
2761;BME280;15420;48.636;9.798;2023-03-01T01:34:42;97284.31;;;1.39;82.98
2761;BME280;15420;48.636;9.798;2023-03-01T01:37:08;97279.22;;;1.39;83.43
2761;BME280;15420;48.636;9.798;2023-03-01T01:39:37;97272.59;;;1.41;83.61
2761;BME280;15420;48.636;9.798;2023-03-01T01:42:05;97267.63;;;1.43;83.02
2761;BME280;15420;48.636;9.798;2023-03-01T01:44:34;97263.50;;;1.45;83.29
2761;BME280;15420;48.636;9.798;2023-03-01T01:47:07;97263.50;;;1.45;83.36
2761;BME280;15420;48.636;9.798;2023-03-01T01:52:22;97265.47;;;1.49;83.02
2761;BME280;15420;48.636;9.798;2023-03-01T01:55:28;97262.16;;;1.50;83.06
2761;BME280;15420;48.636;9.798;2023-03-01T01:57:51;97257.16;;;1.51;83.70
2761;BME280;15420;48.636;9.798;2023-03-01T02:00:22;97256.56;;;1.55;84.29
2761;BME280;15420;48.636;9.798;2023-03-01T02:03:10;97243.09;;;1.56;83.62
2761;BME280;15420;48.636;9.798;2023-03-01T02:05:47;97247.41;;;1.57;83.86
2761;BME280;15420;48.636;9.798;2023-03-01T02:08:18;97247.41;;;1.57;83.87
2761;BME280;15420;48.636;9.798;2023-03-01T02:10:45;97250.03;;;1.59;84.01
2761;BME280;15420;48.636;9.798;2023-03-01T02:13:14;97246.81;;;1.61;84.22
2761;BME280;15420;48.636;9.798;2023-03-01T02:15:45;97239.97;;;1.60;84.17
2761;BME280;15420;48.636;9.798;2023-03-01T02:18:14;97235.75;;;1.61;83.70
2761;BME280;15420;48.636;9.798;2023-03-01T02:23:36;97229.13;;;1.63;84.04
2761;BME280;15420;48.636;9.798;2023-03-01T02:26:08;97230.88;;;1.64;83.64
2761;BME280;15420;48.636;9.798;2023-03-01T02:28:42;97229.31;;;1.66;84.50
2761;BME280;15420;48.636;9.798;2023-03-01T02:31:17;97220.91;;;1.67;84.48
2761;BME280;15420;48.636;9.798;2023-03-01T02:34:06;97220.91;;;1.67;83.61
2761;BME280;15420;48.636;9.798;2023-03-01T02:36:37;97220.13;;;1.68;84.39
2761;BME280;15420;48.636;9.798;2023-03-01T02:39:06;97214.38;;;1.71;84.38
2761;BME280;15420;48.636;9.798;2023-03-01T02:41:36;97221.97;;;1.71;84.05
2761;BME280;15420;48.636;9.798;2023-03-01T02:44:04;97209.28;;;1.71;84.60
2761;BME280;15420;48.636;9.798;2023-03-01T02:46:31;97213.66;;;1.73;84.14
2761;BME280;15420;48.636;9.798;2023-03-01T02:48:58;97218.84;;;1.75;84.01
2761;BME280;15420;48.636;9.798;2023-03-01T02:51:38;97210.44;;;1.76;83.57
2761;BME280;15420;48.636;9.798;2023-03-01T02:56:43;97201.16;;;1.76;83.85
2761;BME280;15420;48.636;9.798;2023-03-01T02:59:12;97202.03;;;1.77;84.42
2761;BME280;15420;48.636;9.798;2023-03-01T03:01:43;97200.47;;;1.79;83.88
2761;BME280;15420;48.636;9.798;2023-03-01T03:04:15;97200.47;;;1.79;83.93
2761;BME280;15420;48.636;9.798;2023-03-01T03:06:44;97199.69;;;1.80;84.36
2761;BME280;15420;48.636;9.798;2023-03-01T03:09:14;97190.41;;;1.80;84.31
2761;BME280;15420;48.636;9.798;2023-03-01T03:11:40;97188.75;;;1.81;84.86
2761;BME280;15420;48.636;9.798;2023-03-01T03:14:14;97185.50;;;1.83;84.42
2761;BME280;15420;48.636;9.798;2023-03-01T03:16:45;97181.31;;;1.84;84.64
2761;BME280;15420;48.636;9.798;2023-03-01T03:19:15;97181.41;;;1.85;85.16
2761;BME280;15420;48.636;9.798;2023-03-01T03:21:46;97182.28;;;1.86;84.79
2761;BME280;15420;48.636;9.798;2023-03-01T03:24:15;97180.63;;;1.86;84.95
2761;BME280;15420;48.636;9.798;2023-03-01T03:26:41;97175.53;;;1.86;84.71
2761;BME280;15420;48.636;9.798;2023-03-01T03:29:10;97178.16;;;1.88;85.11
2761;BME280;15420;48.636;9.798;2023-03-01T03:31:36;97173.19;;;1.89;85.11
2761;BME280;15420;48.636;9.798;2023-03-01T03:34:02;97173.19;;;1.89;85.17
2761;BME280;15420;48.636;9.798;2023-03-01T03:36:28;97179.22;;;1.91;84.74
2761;BME280;15420;48.636;9.798;2023-03-01T03:38:59;97175.03;;;1.92;85.08
2761;BME280;15420;48.636;9.798;2023-03-01T03:41:25;97174.25;;;1.93;85.07
2761;BME280;15420;48.636;9.798;2023-03-01T03:43:51;97177.66;;;1.93;84.74
2761;BME280;15420;48.636;9.798;2023-03-01T03:46:22;97174.34;;;1.94;84.87
2761;BME280;15420;48.636;9.798;2023-03-01T03:48:48;97170.03;;;1.93;85.11
2761;BME280;15420;48.636;9.798;2023-03-01T03:51:17;97172.66;;;1.95;85.34
2761;BME280;15420;48.636;9.798;2023-03-01T03:53:44;97168.47;;;1.95;84.85
2761;BME280;15420;48.636;9.798;2023-03-01T03:56:11;97163.38;;;1.95;84.76
2761;BME280;15420;48.636;9.798;2023-03-01T03:58:40;97165.16;;;1.96;85.04
2761;BME280;15420;48.636;9.798;2023-03-01T04:01:06;97154.97;;;1.96;85.25
2761;BME280;15420;48.636;9.798;2023-03-01T04:03:33;97157.63;;;1.98;84.63
2761;BME280;15420;48.636;9.798;2023-03-01T04:06:01;97153.22;;;1.95;84.97
2761;BME280;15420;48.636;9.798;2023-03-01T04:08:30;97163.56;;;1.99;85.53
2761;BME280;15420;48.636;9.798;2023-03-01T04:11:01;97154.28;;;1.99;85.57
2761;BME280;15420;48.636;9.798;2023-03-01T04:13:48;97149.13;;;1.98;85.24
2761;BME280;15420;48.636;9.798;2023-03-01T04:16:15;97153.41;;;1.99;84.89
2761;BME280;15420;48.636;9.798;2023-03-01T04:18:41;97147.44;;;1.98;85.32
2761;BME280;15420;48.636;9.798;2023-03-01T04:21:09;97152.63;;;2.00;84.71
2761;BME280;15420;48.636;9.798;2023-03-01T04:23:37;97149.28;;;2.01;85.32
2761;BME280;15420;48.636;9.798;2023-03-01T04:26:03;97145.00;;;2.00;85.16
2761;BME280;15420;48.636;9.798;2023-03-01T04:28:42;97144.31;;;2.02;85.58
2761;BME280;15420;48.636;9.798;2023-03-01T04:31:15;97142.56;;;2.01;85.10
2761;BME280;15420;48.636;9.798;2023-03-01T04:33:45;97145.09;;;2.01;85.89
2761;BME280;15420;48.636;9.798;2023-03-01T04:36:13;97143.44;;;2.02;85.69
2761;BME280;15420;48.636;9.798;2023-03-01T04:38:40;97143.44;;;2.02;85.36
2761;BME280;15420;48.636;9.798;2023-03-01T04:41:09;97137.56;;;2.03;85.14
2761;BME280;15420;48.636;9.798;2023-03-01T04:43:38;97144.41;;;2.04;85.39
2761;BME280;15420;48.636;9.798;2023-03-01T04:46:11;97147.03;;;2.05;85.11
2761;BME280;15420;48.636;9.798;2023-03-01T04:48:41;97133.44;;;2.05;85.11
2761;BME280;15420;48.636;9.798;2023-03-01T04:51:08;97143.63;;;2.05;84.86
2761;BME280;15420;48.636;9.798;2023-03-01T04:53:35;97139.41;;;2.05;85.13
2761;BME280;15420;48.636;9.798;2023-03-01T04:56:07;97137.75;;;2.06;85.05
2761;BME280;15420;48.636;9.798;2023-03-01T04:58:34;97141.25;;;2.08;85.36
2761;BME280;15420;48.636;9.798;2023-03-01T05:01:00;97139.50;;;2.07;85.11
2761;BME280;15420;48.636;9.798;2023-03-01T05:03:26;97131.94;;;2.08;85.16
2761;BME280;15420;48.636;9.798;2023-03-01T05:05:54;97135.34;;;2.09;84.65
2761;BME280;15420;48.636;9.798;2023-03-01T05:08:25;97131.09;;;2.08;85.38
2761;BME280;15420;48.636;9.798;2023-03-01T05:10:53;97133.69;;;2.09;84.80
2761;BME280;15420;48.636;9.798;2023-03-01T05:13:21;97138.75;;;2.09;85.03
2761;BME280;15420;48.636;9.798;2023-03-01T05:15:55;97140.63;;;2.12;85.29
2761;BME280;15420;48.636;9.798;2023-03-01T05:18:24;97137.97;;;2.10;85.46
2761;BME280;15420;48.636;9.798;2023-03-01T05:21:02;97133.78;;;2.11;85.05
2761;BME280;15420;48.636;9.798;2023-03-01T05:23:32;97133.78;;;2.11;84.97
2761;BME280;15420;48.636;9.798;2023-03-01T05:26:02;97126.94;;;2.10;85.14
2761;BME280;15420;48.636;9.798;2023-03-01T05:28:30;97131.13;;;2.09;84.62
2761;BME280;15420;48.636;9.798;2023-03-01T05:30:59;97138.72;;;2.08;84.69
2761;BME280;15420;48.636;9.798;2023-03-01T05:33:26;97136.88;;;2.05;85.12
2761;BME280;15420;48.636;9.798;2023-03-01T05:35:53;97129.16;;;2.04;85.04
2761;BME280;15420;48.636;9.798;2023-03-01T05:38:20;97134.84;;;2.00;85.27
2761;BME280;15420;48.636;9.798;2023-03-01T05:40:49;97133.88;;;1.98;85.31
2761;BME280;15420;48.636;9.798;2023-03-01T05:43:16;97123.44;;;1.93;85.13
2761;BME280;15420;48.636;9.798;2023-03-01T05:45:43;97127.47;;;1.89;85.51
2761;BME280;15420;48.636;9.798;2023-03-01T05:48:12;97137.34;;;1.85;85.53
2761;BME280;15420;48.636;9.798;2023-03-01T05:50:43;97127.78;;;1.81;85.10
2761;BME280;15420;48.636;9.798;2023-03-01T05:53:19;97126.72;;;1.77;85.39
2761;BME280;15420;48.636;9.798;2023-03-01T05:55:51;97132.50;;;1.75;85.46
2761;BME280;15420;48.636;9.798;2023-03-01T05:58:19;97134.75;;;1.70;85.62
2761;BME280;15420;48.636;9.798;2023-03-01T06:00:46;97130.19;;;1.64;85.74
2761;BME280;15420;48.636;9.798;2023-03-01T06:03:15;97126.78;;;1.64;85.91
2761;BME280;15420;48.636;9.798;2023-03-01T06:05:42;97125.81;;;1.62;85.46
2761;BME280;15420;48.636;9.798;2023-03-01T06:08:10;97128.94;;;1.58;85.50
2761;BME280;15420;48.636;9.798;2023-03-01T06:10:37;97130.50;;;1.56;84.98
2761;BME280;15420;48.636;9.798;2023-03-01T06:13:05;97133.84;;;1.55;85.52
2761;BME280;15420;48.636;9.798;2023-03-01T06:15:33;97122.63;;;1.51;84.86
2761;BME280;15420;48.636;9.798;2023-03-01T06:17:59;97127.69;;;1.51;85.36
2761;BME280;15420;48.636;9.798;2023-03-01T06:20:27;97131.72;;;1.48;85.56
2761;BME280;15420;48.636;9.798;2023-03-01T06:22:54;97129.94;;;1.47;85.70
2761;BME280;15420;48.636;9.798;2023-03-01T06:25:22;97129.84;;;1.45;84.90
2761;BME280;15420;48.636;9.798;2023-03-01T06:27:51;97122.25;;;1.45;85.14
2761;BME280;15420;48.636;9.798;2023-03-01T06:30:22;97127.22;;;1.44;84.60
2761;BME280;15420;48.636;9.798;2023-03-01T06:32:49;97131.53;;;1.45;84.46
2761;BME280;15420;48.636;9.798;2023-03-01T06:35:17;97128.97;;;1.45;85.31
2761;BME280;15420;48.636;9.798;2023-03-01T06:37:46;97131.53;;;1.45;85.61
2761;BME280;15420;48.636;9.798;2023-03-01T06:40:17;97135.72;;;1.44;85.47
2761;BME280;15420;48.636;9.798;2023-03-01T06:42:49;97130.34;;;1.40;85.58
2761;BME280;15420;48.636;9.798;2023-03-01T06:45:17;97124.59;;;1.42;85.29
2761;BME280;15420;48.636;9.798;2023-03-01T06:47:44;97125.47;;;1.43;85.98
2761;BME280;15420;48.636;9.798;2023-03-01T06:50:10;97116.09;;;1.42;86.12
2761;BME280;15420;48.636;9.798;2023-03-01T06:52:39;97128.88;;;1.43;85.62
2761;BME280;15420;48.636;9.798;2023-03-01T06:55:08;97123.72;;;1.42;86.28
2761;BME280;15420;48.636;9.798;2023-03-01T06:57:36;97121.97;;;1.41;85.84
2761;BME280;15420;48.636;9.798;2023-03-01T07:00:04;97123.72;;;1.42;84.92
2761;BME280;15420;48.636;9.798;2023-03-01T07:02:34;97121.19;;;1.42;85.49
2761;BME280;15420;48.636;9.798;2023-03-01T07:05:02;97116.88;;;1.41;85.14
2761;BME280;15420;48.636;9.798;2023-03-01T07:07:28;97118.63;;;1.42;85.18
2761;BME280;15420;48.636;9.798;2023-03-01T07:09:55;97118.81;;;1.45;84.70
2761;BME280;15420;48.636;9.798;2023-03-01T07:12:21;97111.22;;;1.45;84.43
2761;BME280;15420;48.636;9.798;2023-03-01T07:14:52;97115.59;;;1.47;84.11
2761;BME280;15420;48.636;9.798;2023-03-01T07:17:22;97119.09;;;1.49;84.15
2761;BME280;15420;48.636;9.798;2023-03-01T07:19:48;97128.47;;;1.50;83.82
2761;BME280;15420;48.636;9.798;2023-03-01T07:22:15;97127.78;;;1.53;83.97
2761;BME280;15420;48.636;9.798;2023-03-01T07:24:42;97120.25;;;1.54;83.79
2761;BME280;15420;48.636;9.798;2023-03-01T07:27:09;97118.69;;;1.56;83.58
2761;BME280;15420;48.636;9.798;2023-03-01T07:29:38;97117.91;;;1.57;83.45
2761;BME280;15420;48.636;9.798;2023-03-01T07:32:05;97116.34;;;1.59;82.86
2761;BME280;15420;48.636;9.798;2023-03-01T07:34:31;97118.09;;;1.60;83.03
2761;BME280;15420;48.636;9.798;2023-03-01T07:37:00;97104.81;;;1.64;83.39
2761;BME280;15420;48.636;9.798;2023-03-01T07:39:26;97102.34;;;1.66;83.35
2761;BME280;15420;48.636;9.798;2023-03-01T07:41:55;97099.91;;;1.68;83.22
2761;BME280;15420;48.636;9.798;2023-03-01T07:44:21;97099.22;;;1.70;82.79
2761;BME280;15420;48.636;9.798;2023-03-01T07:46:47;97093.44;;;1.73;82.40
2761;BME280;15420;48.636;9.798;2023-03-01T07:49:14;97091.00;;;1.74;82.42
2761;BME280;15420;48.636;9.798;2023-03-01T07:51:43;97095.38;;;1.77;82.29
2761;BME280;15420;48.636;9.798;2023-03-01T07:54:12;97089.59;;;1.79;82.18
2761;BME280;15420;48.636;9.798;2023-03-01T07:56:38;97079.53;;;1.81;82.55
2761;BME280;15420;48.636;9.798;2023-03-01T07:59:04;97091.53;;;1.83;82.11
2761;BME280;15420;48.636;9.798;2023-03-01T08:01:30;97088.22;;;1.84;82.04
2761;BME280;15420;48.636;9.798;2023-03-01T08:03:58;97090.94;;;1.87;81.73
2761;BME280;15420;48.636;9.798;2023-03-01T08:06:25;97088.56;;;1.90;81.87
2761;BME280;15420;48.636;9.798;2023-03-01T08:08:51;97080.16;;;1.91;82.32
2761;BME280;15420;48.636;9.798;2023-03-01T08:11:17;97086.38;;;1.96;81.38
2761;BME280;15420;48.636;9.798;2023-03-01T08:13:46;97086.47;;;1.98;81.41
2761;BME280;15420;48.636;9.798;2023-03-01T08:16:15;97085.88;;;2.02;81.20
2761;BME280;15420;48.636;9.798;2023-03-01T08:18:42;97077.63;;;2.06;81.00
2761;BME280;15420;48.636;9.798;2023-03-01T08:21:11;97079.44;;;2.09;80.38
2761;BME280;15420;48.636;9.798;2023-03-01T08:23:39;97077.16;;;2.13;80.51
2761;BME280;15420;48.636;9.798;2023-03-01T08:28:38;97067.63;;;2.24;80.02
2761;BME280;15420;48.636;9.798;2023-03-01T08:31:28;97065.44;;;2.30;79.68
2761;BME280;15420;48.636;9.798;2023-03-01T08:33:58;97069.91;;;2.34;79.30
2761;BME280;15420;48.636;9.798;2023-03-01T08:36:29;97067.69;;;2.40;79.03
2761;BME280;15420;48.636;9.798;2023-03-01T08:38:56;97071.38;;;2.45;79.21
2761;BME280;15420;48.636;9.798;2023-03-01T08:41:22;97077.59;;;2.50;78.91
2761;BME280;15420;48.636;9.798;2023-03-01T08:43:53;97071.19;;;2.57;78.41
2761;BME280;15420;48.636;9.798;2023-03-01T08:46:28;97070.84;;;2.66;77.78
2761;BME280;15420;48.636;9.798;2023-03-01T08:48:55;97063.47;;;2.70;76.98
2761;BME280;15420;48.636;9.798;2023-03-01T08:51:22;97061.16;;;2.75;77.05
2761;BME280;15420;48.636;9.798;2023-03-01T08:53:52;97052.91;;;2.79;76.80
2761;BME280;15420;48.636;9.798;2023-03-01T08:56:21;97056.59;;;2.84;76.38
2761;BME280;15420;48.636;9.798;2023-03-01T08:58:49;97056.03;;;2.89;76.36
2761;BME280;15420;48.636;9.798;2023-03-01T09:01:18;97055.50;;;2.95;75.40
2761;BME280;15420;48.636;9.798;2023-03-01T09:03:44;97057.41;;;2.99;74.99
2761;BME280;15420;48.636;9.798;2023-03-01T09:06:11;97051.06;;;3.07;75.01
2761;BME280;15420;48.636;9.798;2023-03-01T09:08:42;97058.97;;;3.12;74.67
2761;BME280;15420;48.636;9.798;2023-03-01T09:11:13;97051.69;;;3.19;74.49
2761;BME280;15420;48.636;9.798;2023-03-01T09:13:41;97053.63;;;3.23;74.04
2761;BME280;15420;48.636;9.798;2023-03-01T09:16:08;97054.72;;;3.28;73.54
2761;BME280;15420;48.636;9.798;2023-03-01T09:18:37;97051.88;;;3.39;74.04
2761;BME280;15420;48.636;9.798;2023-03-01T09:21:09;97047.91;;;3.44;72.91
2761;BME280;15420;48.636;9.798;2023-03-01T09:23:39;97048.94;;;3.47;73.10
2761;BME280;15420;48.636;9.798;2023-03-01T09:26:07;97033.66;;;3.47;72.71
2761;BME280;15420;48.636;9.798;2023-03-01T09:28:35;97046.06;;;3.57;72.36
2761;BME280;15420;48.636;9.798;2023-03-01T09:31:02;97040.34;;;3.61;72.00
2761;BME280;15420;48.636;9.798;2023-03-01T09:33:32;97041.28;;;3.64;71.74
2761;BME280;15420;48.636;9.798;2023-03-01T09:36:04;97023.84;;;3.71;71.37
2761;BME280;15420;48.636;9.798;2023-03-01T09:38:31;97025.75;;;3.75;71.06
2761;BME280;15420;48.636;9.798;2023-03-01T09:40:58;97021.69;;;3.79;70.28
2761;BME280;15420;48.636;9.798;2023-03-01T09:46:09;97019.75;;;3.91;70.16
2761;BME280;15420;48.636;9.798;2023-03-01T09:48:44;97016.66;;;3.97;70.40
2761;BME280;15420;48.636;9.798;2023-03-01T09:51:18;97010.91;;;4.01;70.03
2761;BME280;15420;48.636;9.798;2023-03-01T09:53:46;97015.44;;;4.06;69.78
2761;BME280;15420;48.636;9.798;2023-03-01T09:56:16;97011.34;;;4.10;70.10
2761;BME280;15420;48.636;9.798;2023-03-01T10:02:01;96994.31;;;4.26;69.25
2761;BME280;15420;48.636;9.798;2023-03-01T10:09:38;96994.22;;;4.43;68.68
2761;BME280;15420;48.636;9.798;2023-03-01T10:12:13;96993.78;;;4.51;68.79
2761;BME280;15420;48.636;9.798;2023-03-01T10:14:51;96985.63;;;4.58;67.91
2761;BME280;15420;48.636;9.798;2023-03-01T10:17:46;96997.88;;;4.66;67.36
2761;BME280;15420;48.636;9.798;2023-03-01T10:22:44;96995.75;;;4.75;68.19
2761;BME280;15420;48.636;9.798;2023-03-01T10:25:22;96995.50;;;4.88;67.38
2761;BME280;15420;48.636;9.798;2023-03-01T10:27:58;96997.47;;;4.93;66.38
2761;BME280;15420;48.636;9.798;2023-03-01T10:30:39;97000.44;;;5.03;66.35
2761;BME280;15420;48.636;9.798;2023-03-01T10:33:17;96989.50;;;5.05;66.81
2761;BME280;15420;48.636;9.798;2023-03-01T10:35:48;96986.50;;;5.14;66.53
2761;BME280;15420;48.636;9.798;2023-03-01T10:38:20;96973.06;;;5.18;66.12
2761;BME280;15420;48.636;9.798;2023-03-01T10:41:06;96974.56;;;5.34;64.74
2761;BME280;15420;48.636;9.798;2023-03-01T10:43:52;96974.09;;;5.42;64.37
2761;BME280;15420;48.636;9.798;2023-03-01T10:46:29;96965.91;;;5.49;64.25
2761;BME280;15420;48.636;9.798;2023-03-01T10:49:23;96963.00;;;5.61;64.01
2761;BME280;15420;48.636;9.798;2023-03-01T10:51:53;96957.28;;;5.67;63.59
2761;BME280;15420;48.636;9.798;2023-03-01T10:54:26;96954.22;;;5.75;63.89
2761;BME280;15420;48.636;9.798;2023-03-01T10:57:01;96951.19;;;5.84;63.13
2761;BME280;15420;48.636;9.798;2023-03-01T11:02:23;96948.66;;;6.05;62.10
2761;BME280;15420;48.636;9.798;2023-03-01T11:05:24;96948.16;;;6.13;61.65
2761;BME280;15420;48.636;9.798;2023-03-01T11:10:25;96932.59;;;6.30;61.56
2761;BME280;15420;48.636;9.798;2023-03-01T11:15:35;96914.34;;;6.43;60.99
2761;BME280;15420;48.636;9.798;2023-03-01T11:18:02;96913.84;;;6.51;61.18
2761;BME280;15420;48.636;9.798;2023-03-01T11:20:36;96921.16;;;6.65;60.68
2761;BME280;15420;48.636;9.798;2023-03-01T11:23:13;96920.59;;;6.72;60.14
2761;BME280;15420;48.636;9.798;2023-03-01T11:25:46;96911.38;;;6.77;60.13
2761;BME280;15420;48.636;9.798;2023-03-01T11:28:18;96903.22;;;6.87;59.42
2761;BME280;15420;48.636;9.798;2023-03-01T11:31:05;96910.56;;;7.00;59.31
2761;BME280;15420;48.636;9.798;2023-03-01T11:33:49;96902.16;;;7.04;58.86
2761;BME280;15420;48.636;9.798;2023-03-01T11:36:58;96903.41;;;7.15;58.65
2761;BME280;15420;48.636;9.798;2023-03-01T11:39:42;96897.69;;;7.22;58.80
2761;BME280;15420;48.636;9.798;2023-03-01T11:42:20;96887.69;;;7.30;58.40
2761;BME280;15420;48.636;9.798;2023-03-01T11:44:50;96881.13;;;7.38;57.56
2761;BME280;15420;48.636;9.798;2023-03-01T11:58:23;96858.84;;;7.86;56.84
2761;BME280;15420;48.636;9.798;2023-03-01T12:20:32;96824.31;;;8.89;55.01
2761;BME280;15420;48.636;9.798;2023-03-01T12:31:32;96807.25;;;9.57;53.44
2761;BME280;15420;48.636;9.798;2023-03-01T12:37:22;96801.25;;;9.93;52.57
2761;BME280;15420;48.636;9.798;2023-03-01T12:50:55;96772.16;;;10.75;50.66
2761;BME280;15420;48.636;9.798;2023-03-01T12:53:28;96769.03;;;10.91;50.54
2761;BME280;15420;48.636;9.798;2023-03-01T12:56:05;96762.47;;;11.07;50.00
2761;BME280;15420;48.636;9.798;2023-03-01T12:58:39;96761.00;;;11.21;48.74
2761;BME280;15420;48.636;9.798;2023-03-01T13:12:51;96750.22;;;11.98;47.24
2761;BME280;15420;48.636;9.798;2023-03-01T13:17:58;96746.28;;;12.21;48.14
2761;BME280;15420;48.636;9.798;2023-03-01T13:26:18;96739.06;;;12.67;47.11
2761;BME280;15420;48.636;9.798;2023-03-01T13:28:47;96737.41;;;12.72;46.91
2761;BME280;15420;48.636;9.798;2023-03-01T13:33:52;96735.97;;;12.97;46.59
2761;BME280;15420;48.636;9.798;2023-03-01T13:49:55;96733.72;;;13.26;44.76
2761;BME280;15420;48.636;9.798;2023-03-01T13:52:44;96738.06;;;13.30;44.76
2761;BME280;15420;48.636;9.798;2023-03-01T13:55:36;96738.13;;;13.34;44.94
2761;BME280;15420;48.636;9.798;2023-03-01T13:58:43;96735.53;;;13.34;43.81
2761;BME280;15420;48.636;9.798;2023-03-01T14:01:03;96746.75;;;13.35;43.97
2761;BME280;15420;48.636;9.798;2023-03-01T14:03:34;96739.00;;;13.36;43.44
2761;BME280;15420;48.636;9.798;2023-03-01T14:06:16;96741.63;;;13.39;43.48
2761;BME280;15420;48.636;9.798;2023-03-01T14:08:45;96741.63;;;13.41;44.28
2761;BME280;15420;48.636;9.798;2023-03-01T14:16:37;96755.50;;;13.49;43.69
2761;BME280;15420;48.636;9.798;2023-03-01T14:19:18;96741.69;;;13.47;43.43
2761;BME280;15420;48.636;9.798;2023-03-01T14:21:59;96752.03;;;13.47;43.01
2761;BME280;15420;48.636;9.798;2023-03-01T14:24:30;96761.53;;;13.47;43.82
2761;BME280;15420;48.636;9.798;2023-03-01T14:27:00;96760.66;;;13.46;43.15
2761;BME280;15420;48.636;9.798;2023-03-01T14:29:38;96762.41;;;13.49;43.78
2761;BME280;15420;48.636;9.798;2023-03-01T14:32:30;96762.38;;;13.47;43.25
2761;BME280;15420;48.636;9.798;2023-03-01T14:34:57;96759.72;;;13.38;44.20
2761;BME280;15420;48.636;9.798;2023-03-01T14:37:32;96765.75;;;13.38;44.11
2761;BME280;15420;48.636;9.798;2023-03-01T14:40:01;96760.53;;;13.34;43.77
2761;BME280;15420;48.636;9.798;2023-03-01T14:42:35;96756.22;;;13.33;43.99
2761;BME280;15420;48.636;9.798;2023-03-01T14:45:04;96762.22;;;13.29;44.54
2761;BME280;15420;48.636;9.798;2023-03-01T14:47:38;96753.56;;;13.25;43.74
2761;BME280;15420;48.636;9.798;2023-03-01T14:52:52;96759.31;;;13.03;44.38
2761;BME280;15420;48.636;9.798;2023-03-01T14:58:02;96736.66;;;12.81;44.50
2761;BME280;15420;48.636;9.798;2023-03-01T15:00:34;96740.84;;;12.69;44.19
2761;BME280;15420;48.636;9.798;2023-03-01T15:03:37;96732.16;;;12.64;43.43
2761;BME280;15420;48.636;9.798;2023-03-01T15:06:07;96732.84;;;12.50;43.50
2761;BME280;15420;48.636;9.798;2023-03-01T15:08:35;96735.28;;;12.37;44.80
2761;BME280;15420;48.636;9.798;2023-03-01T15:11:49;96736.03;;;12.27;44.08
2761;BME280;15420;48.636;9.798;2023-03-01T15:13:52;96745.38;;;12.19;45.21
2761;BME280;15420;48.636;9.798;2023-03-01T15:16:33;96747.03;;;12.14;45.26
2761;BME280;15420;48.636;9.798;2023-03-01T15:19:05;96741.72;;;12.05;44.81
2761;BME280;15420;48.636;9.798;2023-03-01T15:21:37;96744.22;;;11.99;45.21
2761;BME280;15420;48.636;9.798;2023-03-01T15:26:53;96750.91;;;11.85;45.05
2761;BME280;15420;48.636;9.798;2023-03-01T15:29:25;96745.63;;;11.78;45.03
2761;BME280;15420;48.636;9.798;2023-03-01T15:32:04;96742.94;;;11.74;46.92
2761;BME280;15420;48.636;9.798;2023-03-01T15:34:36;96739.44;;;11.69;46.49
2761;BME280;15420;48.636;9.798;2023-03-01T15:37:36;96735.09;;;11.68;47.00
2761;BME280;15420;48.636;9.798;2023-03-01T15:43:00;96740.94;;;11.56;47.21
2761;BME280;15420;48.636;9.798;2023-03-01T15:45:32;96740.75;;;11.44;46.59
2761;BME280;15420;48.636;9.798;2023-03-01T15:48:04;96741.59;;;11.41;46.85
2761;BME280;15420;48.636;9.798;2023-03-01T15:50:34;96729.34;;;11.30;46.64
2761;BME280;15420;48.636;9.798;2023-03-01T15:53:07;96725.75;;;11.22;47.29
2761;BME280;15420;48.636;9.798;2023-03-01T15:55:34;96719.66;;;11.17;47.46
2761;BME280;15420;48.636;9.798;2023-03-01T16:00:31;96709.44;;;11.23;48.25
2761;BME280;15420;48.636;9.798;2023-03-01T16:02:59;96702.22;;;11.02;48.30